sensor_id;sensor_type;location;lat;lon;timestamp;P1;durP1;ratioP1;P2;durP2;ratioP2
54539;SDS011;40438;52.992;18.604;2023-07-28T00:01:59;8.75;;;2.92;;
54539;SDS011;40438;52.992;18.604;2023-07-28T00:04:25;5.35;;;3.10;;
54539;SDS011;40438;52.992;18.604;2023-07-28T00:06:51;4.95;;;3.25;;
54539;SDS011;40438;52.992;18.604;2023-07-28T00:09:16;4.35;;;2.60;;
54539;SDS011;40438;52.992;18.604;2023-07-28T00:11:44;6.50;;;4.07;;
54539;SDS011;40438;52.992;18.604;2023-07-28T00:14:09;6.30;;;3.20;;
54539;SDS011;40438;52.992;18.604;2023-07-28T00:16:35;6.35;;;3.33;;
54539;SDS011;40438;52.992;18.604;2023-07-28T00:19:01;8.80;;;3.95;;
54539;SDS011;40438;52.992;18.604;2023-07-28T00:21:27;8.40;;;3.65;;
54539;SDS011;40438;52.992;18.604;2023-07-28T00:23:52;5.50;;;3.70;;
54539;SDS011;40438;52.992;18.604;2023-07-28T00:26:18;6.25;;;3.63;;
54539;SDS011;40438;52.992;18.604;2023-07-28T00:28:45;8.63;;;4.15;;
54539;SDS011;40438;52.992;18.604;2023-07-28T00:31:13;8.13;;;3.75;;
54539;SDS011;40438;52.992;18.604;2023-07-28T00:33:38;5.97;;;3.60;;
54539;SDS011;40438;52.992;18.604;2023-07-28T00:36:04;7.53;;;3.63;;
54539;SDS011;40438;52.992;18.604;2023-07-28T00:38:31;8.90;;;3.83;;
54539;SDS011;40438;52.992;18.604;2023-07-28T00:40:57;7.10;;;4.28;;
54539;SDS011;40438;52.992;18.604;2023-07-28T00:43:24;6.82;;;4.10;;
54539;SDS011;40438;52.992;18.604;2023-07-28T00:45:51;8.73;;;4.30;;
54539;SDS011;40438;52.992;18.604;2023-07-28T00:48:18;9.18;;;3.80;;
54539;SDS011;40438;52.992;18.604;2023-07-28T00:50:44;7.15;;;3.95;;
54539;SDS011;40438;52.992;18.604;2023-07-28T00:53:11;9.82;;;3.83;;
54539;SDS011;40438;52.992;18.604;2023-07-28T00:55:37;10.07;;;3.47;;
54539;SDS011;40438;52.992;18.604;2023-07-28T00:58:03;9.30;;;3.78;;
54539;SDS011;40438;52.992;18.604;2023-07-28T01:00:29;7.18;;;4.00;;
54539;SDS011;40438;52.992;18.604;2023-07-28T01:02:56;6.47;;;4.10;;
54539;SDS011;40438;52.992;18.604;2023-07-28T01:05:24;9.52;;;4.30;;
54539;SDS011;40438;52.992;18.604;2023-07-28T01:07:54;6.05;;;3.92;;
54539;SDS011;40438;52.992;18.604;2023-07-28T01:10:26;7.40;;;3.80;;
54539;SDS011;40438;52.992;18.604;2023-07-28T01:12:55;5.45;;;3.55;;
54539;SDS011;40438;52.992;18.604;2023-07-28T01:15:21;11.48;;;4.43;;
54539;SDS011;40438;52.992;18.604;2023-07-28T01:17:46;8.95;;;3.83;;
54539;SDS011;40438;52.992;18.604;2023-07-28T01:20:14;7.13;;;4.18;;
54539;SDS011;40438;52.992;18.604;2023-07-28T01:22:45;10.27;;;4.40;;
54539;SDS011;40438;52.992;18.604;2023-07-28T01:25:15;8.30;;;4.15;;
54539;SDS011;40438;52.992;18.604;2023-07-28T01:27:47;6.88;;;4.15;;
54539;SDS011;40438;52.992;18.604;2023-07-28T01:30:15;6.78;;;3.42;;
54539;SDS011;40438;52.992;18.604;2023-07-28T01:32:41;6.10;;;3.42;;
54539;SDS011;40438;52.992;18.604;2023-07-28T01:35:07;7.30;;;3.60;;
54539;SDS011;40438;52.992;18.604;2023-07-28T01:37:33;9.20;;;4.07;;
54539;SDS011;40438;52.992;18.604;2023-07-28T01:39:59;7.97;;;4.38;;
54539;SDS011;40438;52.992;18.604;2023-07-28T01:42:25;7.40;;;3.75;;
54539;SDS011;40438;52.992;18.604;2023-07-28T01:44:52;7.22;;;3.88;;
54539;SDS011;40438;52.992;18.604;2023-07-28T01:47:18;7.22;;;3.58;;
54539;SDS011;40438;52.992;18.604;2023-07-28T01:49:44;5.78;;;3.92;;
54539;SDS011;40438;52.992;18.604;2023-07-28T01:52:09;7.18;;;3.85;;
54539;SDS011;40438;52.992;18.604;2023-07-28T01:54:35;4.88;;;3.70;;
54539;SDS011;40438;52.992;18.604;2023-07-28T01:57:01;8.00;;;3.85;;
54539;SDS011;40438;52.992;18.604;2023-07-28T01:59:27;9.80;;;4.88;;
54539;SDS011;40438;52.992;18.604;2023-07-28T02:01:54;6.63;;;3.70;;
54539;SDS011;40438;52.992;18.604;2023-07-28T02:04:20;6.75;;;3.45;;
54539;SDS011;40438;52.992;18.604;2023-07-28T02:06:46;4.43;;;3.15;;
54539;SDS011;40438;52.992;18.604;2023-07-28T02:09:11;6.07;;;3.50;;
54539;SDS011;40438;52.992;18.604;2023-07-28T02:11:37;4.32;;;2.80;;
54539;SDS011;40438;52.992;18.604;2023-07-28T02:14:03;5.65;;;3.45;;
54539;SDS011;40438;52.992;18.604;2023-07-28T02:16:29;4.65;;;3.47;;
54539;SDS011;40438;52.992;18.604;2023-07-28T02:18:56;5.45;;;3.88;;
54539;SDS011;40438;52.992;18.604;2023-07-28T02:21:22;9.25;;;4.95;;
54539;SDS011;40438;52.992;18.604;2023-07-28T02:23:48;5.95;;;3.80;;
54539;SDS011;40438;52.992;18.604;2023-07-28T02:26:14;6.22;;;3.42;;
54539;SDS011;40438;52.992;18.604;2023-07-28T02:28:39;5.32;;;3.47;;
54539;SDS011;40438;52.992;18.604;2023-07-28T02:31:05;11.18;;;3.95;;
54539;SDS011;40438;52.992;18.604;2023-07-28T02:33:31;5.75;;;3.08;;
54539;SDS011;40438;52.992;18.604;2023-07-28T02:35:58;9.15;;;3.70;;
54539;SDS011;40438;52.992;18.604;2023-07-28T02:38:24;6.38;;;3.90;;
54539;SDS011;40438;52.992;18.604;2023-07-28T02:40:50;5.97;;;3.85;;
54539;SDS011;40438;52.992;18.604;2023-07-28T02:43:15;7.35;;;3.30;;
54539;SDS011;40438;52.992;18.604;2023-07-28T02:45:41;4.90;;;3.42;;
54539;SDS011;40438;52.992;18.604;2023-07-28T02:48:07;9.50;;;3.92;;
54539;SDS011;40438;52.992;18.604;2023-07-28T02:50:34;5.30;;;3.80;;
54539;SDS011;40438;52.992;18.604;2023-07-28T02:53:01;5.57;;;4.00;;
54539;SDS011;40438;52.992;18.604;2023-07-28T02:55:26;5.78;;;3.47;;
54539;SDS011;40438;52.992;18.604;2023-07-28T02:57:52;5.80;;;3.97;;
54539;SDS011;40438;52.992;18.604;2023-07-28T03:00:18;6.18;;;3.78;;
54539;SDS011;40438;52.992;18.604;2023-07-28T03:02:44;6.10;;;3.70;;
54539;SDS011;40438;52.992;18.604;2023-07-28T03:05:10;5.30;;;3.67;;
54539;SDS011;40438;52.992;18.604;2023-07-28T03:07:39;6.10;;;3.88;;
54539;SDS011;40438;52.992;18.604;2023-07-28T03:10:09;7.32;;;4.05;;
54539;SDS011;40438;52.992;18.604;2023-07-28T03:12:36;5.60;;;3.33;;
54539;SDS011;40438;52.992;18.604;2023-07-28T03:15:02;5.03;;;3.17;;
54539;SDS011;40438;52.992;18.604;2023-07-28T03:17:29;6.53;;;3.28;;
54539;SDS011;40438;52.992;18.604;2023-07-28T03:19:54;5.10;;;3.03;;
54539;SDS011;40438;52.992;18.604;2023-07-28T03:22:20;6.18;;;3.22;;
54539;SDS011;40438;52.992;18.604;2023-07-28T03:24:46;5.93;;;3.65;;
54539;SDS011;40438;52.992;18.604;2023-07-28T03:27:13;3.97;;;2.95;;
54539;SDS011;40438;52.992;18.604;2023-07-28T03:29:39;4.30;;;3.20;;
54539;SDS011;40438;52.992;18.604;2023-07-28T03:32:05;7.75;;;3.67;;
54539;SDS011;40438;52.992;18.604;2023-07-28T03:34:31;5.57;;;3.35;;
54539;SDS011;40438;52.992;18.604;2023-07-28T03:36:59;5.20;;;3.13;;
54539;SDS011;40438;52.992;18.604;2023-07-28T03:39:25;6.68;;;3.60;;
54539;SDS011;40438;52.992;18.604;2023-07-28T03:41:50;7.10;;;3.53;;
54539;SDS011;40438;52.992;18.604;2023-07-28T03:44:18;6.07;;;3.50;;
54539;SDS011;40438;52.992;18.604;2023-07-28T03:46:44;8.25;;;3.17;;
54539;SDS011;40438;52.992;18.604;2023-07-28T03:49:09;6.97;;;3.58;;
54539;SDS011;40438;52.992;18.604;2023-07-28T03:51:35;10.35;;;3.10;;
54539;SDS011;40438;52.992;18.604;2023-07-28T03:54:01;5.60;;;3.10;;
54539;SDS011;40438;52.992;18.604;2023-07-28T03:56:27;6.80;;;3.13;;
54539;SDS011;40438;52.992;18.604;2023-07-28T03:58:53;5.82;;;3.40;;
54539;SDS011;40438;52.992;18.604;2023-07-28T04:01:20;4.47;;;3.50;;
54539;SDS011;40438;52.992;18.604;2023-07-28T04:03:46;6.63;;;3.20;;
54539;SDS011;40438;52.992;18.604;2023-07-28T04:06:12;4.10;;;3.05;;
54539;SDS011;40438;52.992;18.604;2023-07-28T04:08:37;7.97;;;3.58;;
54539;SDS011;40438;52.992;18.604;2023-07-28T04:11:03;7.65;;;3.45;;
54539;SDS011;40438;52.992;18.604;2023-07-28T04:13:29;4.25;;;2.90;;
54539;SDS011;40438;52.992;18.604;2023-07-28T04:15:55;7.30;;;3.10;;
54539;SDS011;40438;52.992;18.604;2023-07-28T04:18:23;4.18;;;3.05;;
54539;SDS011;40438;52.992;18.604;2023-07-28T04:20:49;4.20;;;2.95;;
54539;SDS011;40438;52.992;18.604;2023-07-28T04:23:14;7.68;;;3.58;;
54539;SDS011;40438;52.992;18.604;2023-07-28T04:25:40;4.10;;;3.13;;
54539;SDS011;40438;52.992;18.604;2023-07-28T04:28:06;4.40;;;2.90;;
54539;SDS011;40438;52.992;18.604;2023-07-28T04:30:32;4.80;;;3.20;;
54539;SDS011;40438;52.992;18.604;2023-07-28T04:32:58;5.03;;;2.85;;
54539;SDS011;40438;52.992;18.604;2023-07-28T04:35:33;5.30;;;3.25;;
54539;SDS011;40438;52.992;18.604;2023-07-28T04:38:19;8.07;;;3.25;;
54539;SDS011;40438;52.992;18.604;2023-07-28T04:40:54;5.03;;;3.22;;
54539;SDS011;40438;52.992;18.604;2023-07-28T04:43:24;4.05;;;3.03;;
54539;SDS011;40438;52.992;18.604;2023-07-28T04:45:54;4.45;;;2.97;;
54539;SDS011;40438;52.992;18.604;2023-07-28T04:48:21;14.27;;;5.22;;
54539;SDS011;40438;52.992;18.604;2023-07-28T04:50:50;7.80;;;4.32;;
54539;SDS011;40438;52.992;18.604;2023-07-28T04:53:35;6.38;;;3.63;;
54539;SDS011;40438;52.992;18.604;2023-07-28T04:56:09;8.55;;;3.38;;
54539;SDS011;40438;52.992;18.604;2023-07-28T04:58:35;13.60;;;3.63;;
54539;SDS011;40438;52.992;18.604;2023-07-28T05:01:01;6.15;;;3.50;;
54539;SDS011;40438;52.992;18.604;2023-07-28T05:03:28;8.02;;;3.28;;
54539;SDS011;40438;52.992;18.604;2023-07-28T05:05:59;5.13;;;3.50;;
54539;SDS011;40438;52.992;18.604;2023-07-28T05:08:25;4.03;;;2.78;;
54539;SDS011;40438;52.992;18.604;2023-07-28T05:10:52;4.88;;;3.42;;
54539;SDS011;40438;52.992;18.604;2023-07-28T05:13:17;6.95;;;3.80;;
54539;SDS011;40438;52.992;18.604;2023-07-28T05:15:52;5.35;;;3.35;;
54539;SDS011;40438;52.992;18.604;2023-07-28T05:18:35;5.55;;;3.00;;
54539;SDS011;40438;52.992;18.604;2023-07-28T05:21:37;7.15;;;3.58;;
54539;SDS011;40438;52.992;18.604;2023-07-28T05:24:03;6.75;;;3.35;;
54539;SDS011;40438;52.992;18.604;2023-07-28T05:26:31;6.35;;;3.55;;
54539;SDS011;40438;52.992;18.604;2023-07-28T05:28:57;6.43;;;3.53;;
54539;SDS011;40438;52.992;18.604;2023-07-28T05:31:23;4.63;;;3.13;;
54539;SDS011;40438;52.992;18.604;2023-07-28T05:33:49;5.82;;;3.25;;
54539;SDS011;40438;52.992;18.604;2023-07-28T05:36:15;6.35;;;3.05;;
54539;SDS011;40438;52.992;18.604;2023-07-28T05:38:42;5.53;;;3.53;;
54539;SDS011;40438;52.992;18.604;2023-07-28T05:41:08;5.03;;;3.58;;
54539;SDS011;40438;52.992;18.604;2023-07-28T05:43:34;5.35;;;3.97;;
54539;SDS011;40438;52.992;18.604;2023-07-28T05:46:00;5.60;;;3.78;;
54539;SDS011;40438;52.992;18.604;2023-07-28T05:48:30;5.72;;;3.80;;
54539;SDS011;40438;52.992;18.604;2023-07-28T05:50:56;7.47;;;3.88;;
54539;SDS011;40438;52.992;18.604;2023-07-28T05:53:21;5.47;;;4.05;;
54539;SDS011;40438;52.992;18.604;2023-07-28T05:55:52;7.55;;;5.45;;
54539;SDS011;40438;52.992;18.604;2023-07-28T05:58:18;11.95;;;6.35;;
54539;SDS011;40438;52.992;18.604;2023-07-28T06:00:44;9.43;;;5.65;;
54539;SDS011;40438;52.992;18.604;2023-07-28T06:03:24;9.52;;;5.38;;
54539;SDS011;40438;52.992;18.604;2023-07-28T06:06:02;6.13;;;4.20;;
54539;SDS011;40438;52.992;18.604;2023-07-28T06:08:28;9.15;;;5.57;;
54539;SDS011;40438;52.992;18.604;2023-07-28T06:10:56;8.13;;;4.47;;
54539;SDS011;40438;52.992;18.604;2023-07-28T06:13:21;5.70;;;3.97;;
54539;SDS011;40438;52.992;18.604;2023-07-28T06:15:47;7.47;;;4.35;;
54539;SDS011;40438;52.992;18.604;2023-07-28T06:18:13;11.05;;;4.25;;
54539;SDS011;40438;52.992;18.604;2023-07-28T06:20:41;5.55;;;4.10;;
54539;SDS011;40438;52.992;18.604;2023-07-28T06:23:07;5.13;;;3.75;;
54539;SDS011;40438;52.992;18.604;2023-07-28T06:25:33;6.45;;;4.38;;
54539;SDS011;40438;52.992;18.604;2023-07-28T06:28:06;7.88;;;4.32;;
54539;SDS011;40438;52.992;18.604;2023-07-28T06:30:32;6.75;;;4.03;;
54539;SDS011;40438;52.992;18.604;2023-07-28T06:32:57;5.80;;;3.95;;
54539;SDS011;40438;52.992;18.604;2023-07-28T06:35:23;8.07;;;4.55;;
54539;SDS011;40438;52.992;18.604;2023-07-28T06:37:49;9.68;;;4.65;;
54539;SDS011;40438;52.992;18.604;2023-07-28T06:40:15;6.47;;;4.13;;
54539;SDS011;40438;52.992;18.604;2023-07-28T06:42:41;5.97;;;4.60;;
54539;SDS011;40438;52.992;18.604;2023-07-28T06:45:09;8.23;;;5.00;;
54539;SDS011;40438;52.992;18.604;2023-07-28T06:47:35;8.13;;;4.30;;
54539;SDS011;40438;52.992;18.604;2023-07-28T06:50:01;6.40;;;4.03;;
54539;SDS011;40438;52.992;18.604;2023-07-28T06:52:26;6.95;;;4.13;;
54539;SDS011;40438;52.992;18.604;2023-07-28T06:54:52;6.45;;;4.32;;
54539;SDS011;40438;52.992;18.604;2023-07-28T06:57:18;5.70;;;4.32;;
54539;SDS011;40438;52.992;18.604;2023-07-28T06:59:46;8.80;;;4.20;;
54539;SDS011;40438;52.992;18.604;2023-07-28T07:02:13;4.72;;;3.75;;
54539;SDS011;40438;52.992;18.604;2023-07-28T07:04:39;7.78;;;3.58;;
54539;SDS011;40438;52.992;18.604;2023-07-28T07:07:05;5.13;;;3.63;;
54539;SDS011;40438;52.992;18.604;2023-07-28T07:09:31;8.38;;;3.55;;
54539;SDS011;40438;52.992;18.604;2023-07-28T07:11:56;5.47;;;3.88;;
54539;SDS011;40438;52.992;18.604;2023-07-28T07:14:22;7.57;;;4.10;;
54539;SDS011;40438;52.992;18.604;2023-07-28T07:16:48;5.70;;;3.85;;
54539;SDS011;40438;52.992;18.604;2023-07-28T07:19:15;6.82;;;3.65;;
54539;SDS011;40438;52.992;18.604;2023-07-28T07:21:41;6.47;;;3.67;;
54539;SDS011;40438;52.992;18.604;2023-07-28T07:24:07;3.88;;;3.30;;
54539;SDS011;40438;52.992;18.604;2023-07-28T07:26:33;4.82;;;3.60;;
54539;SDS011;40438;52.992;18.604;2023-07-28T07:28:58;7.03;;;3.72;;
54539;SDS011;40438;52.992;18.604;2023-07-28T07:31:24;4.15;;;3.28;;
54539;SDS011;40438;52.992;18.604;2023-07-28T07:33:50;5.97;;;3.72;;
54539;SDS011;40438;52.992;18.604;2023-07-28T07:36:18;4.90;;;2.90;;
54539;SDS011;40438;52.992;18.604;2023-07-28T07:38:44;4.95;;;3.10;;
54539;SDS011;40438;52.992;18.604;2023-07-28T07:41:11;4.68;;;3.42;;
54539;SDS011;40438;52.992;18.604;2023-07-28T07:43:36;4.45;;;3.40;;
54539;SDS011;40438;52.992;18.604;2023-07-28T07:46:02;4.60;;;3.00;;
54539;SDS011;40438;52.992;18.604;2023-07-28T07:48:28;3.90;;;2.90;;
54539;SDS011;40438;52.992;18.604;2023-07-28T07:50:54;6.28;;;3.38;;
54539;SDS011;40438;52.992;18.604;2023-07-28T07:53:21;4.22;;;3.35;;
54539;SDS011;40438;52.992;18.604;2023-07-28T07:55:47;5.32;;;3.75;;
54539;SDS011;40438;52.992;18.604;2023-07-28T07:58:14;4.03;;;3.35;;
54539;SDS011;40438;52.992;18.604;2023-07-28T08:00:40;5.35;;;3.45;;
54539;SDS011;40438;52.992;18.604;2023-07-28T08:03:05;6.25;;;4.05;;
54539;SDS011;40438;52.992;18.604;2023-07-28T08:05:31;4.65;;;3.63;;
54539;SDS011;40438;52.992;18.604;2023-07-28T08:07:57;7.05;;;4.45;;
54539;SDS011;40438;52.992;18.604;2023-07-28T08:10:24;4.78;;;3.88;;
54539;SDS011;40438;52.992;18.604;2023-07-28T08:12:50;7.70;;;4.38;;
54539;SDS011;40438;52.992;18.604;2023-07-28T08:15:16;6.05;;;4.38;;
54539;SDS011;40438;52.992;18.604;2023-07-28T08:17:42;6.78;;;4.47;;
54539;SDS011;40438;52.992;18.604;2023-07-28T08:20:08;6.35;;;4.22;;
54539;SDS011;40438;52.992;18.604;2023-07-28T08:22:34;5.03;;;4.53;;
54539;SDS011;40438;52.992;18.604;2023-07-28T08:24:59;6.18;;;4.25;;
54539;SDS011;40438;52.992;18.604;2023-07-28T08:27:27;5.97;;;4.38;;
54539;SDS011;40438;52.992;18.604;2023-07-28T08:29:52;7.13;;;4.63;;
54539;SDS011;40438;52.992;18.604;2023-07-28T08:32:18;7.65;;;5.00;;
54539;SDS011;40438;52.992;18.604;2023-07-28T08:34:44;6.20;;;5.07;;
54539;SDS011;40438;52.992;18.604;2023-07-28T08:37:10;5.95;;;4.80;;
54539;SDS011;40438;52.992;18.604;2023-07-28T08:39:35;6.13;;;4.68;;
54539;SDS011;40438;52.992;18.604;2023-07-28T08:42:02;7.22;;;5.10;;
54539;SDS011;40438;52.992;18.604;2023-07-28T08:44:30;6.35;;;4.75;;
54539;SDS011;40438;52.992;18.604;2023-07-28T08:46:58;6.43;;;5.07;;
54539;SDS011;40438;52.992;18.604;2023-07-28T08:49:25;6.07;;;4.50;;
54539;SDS011;40438;52.992;18.604;2023-07-28T08:51:52;5.32;;;3.97;;
54539;SDS011;40438;52.992;18.604;2023-07-28T08:54:18;9.35;;;4.57;;
54539;SDS011;40438;52.992;18.604;2023-07-28T08:56:43;5.57;;;4.85;;
54539;SDS011;40438;52.992;18.604;2023-07-28T08:59:09;6.28;;;4.95;;
54539;SDS011;40438;52.992;18.604;2023-07-28T09:01:39;5.63;;;4.53;;
54539;SDS011;40438;52.992;18.604;2023-07-28T09:04:08;7.20;;;5.10;;
54539;SDS011;40438;52.992;18.604;2023-07-28T09:06:35;5.40;;;4.50;;
54539;SDS011;40438;52.992;18.604;2023-07-28T09:09:00;9.60;;;4.78;;
54539;SDS011;40438;52.992;18.604;2023-07-28T09:11:27;6.80;;;4.78;;
54539;SDS011;40438;52.992;18.604;2023-07-28T09:13:53;9.18;;;4.85;;
54539;SDS011;40438;52.992;18.604;2023-07-28T09:16:20;11.75;;;5.93;;
54539;SDS011;40438;52.992;18.604;2023-07-28T09:18:47;7.88;;;5.63;;
54539;SDS011;40438;52.992;18.604;2023-07-28T09:21:16;9.95;;;5.55;;
54539;SDS011;40438;52.992;18.604;2023-07-28T09:23:43;8.05;;;5.25;;
54539;SDS011;40438;52.992;18.604;2023-07-28T09:26:09;8.45;;;5.95;;
54539;SDS011;40438;52.992;18.604;2023-07-28T09:28:36;7.38;;;4.60;;
54539;SDS011;40438;52.992;18.604;2023-07-28T09:31:02;8.25;;;5.55;;
54539;SDS011;40438;52.992;18.604;2023-07-28T09:33:30;7.47;;;5.97;;
54539;SDS011;40438;52.992;18.604;2023-07-28T09:35:58;6.22;;;4.65;;
54539;SDS011;40438;52.992;18.604;2023-07-28T09:38:32;6.80;;;5.80;;
54539;SDS011;40438;52.992;18.604;2023-07-28T09:41:00;9.25;;;5.68;;
54539;SDS011;40438;52.992;18.604;2023-07-28T09:43:26;7.63;;;6.05;;
54539;SDS011;40438;52.992;18.604;2023-07-28T09:45:52;8.75;;;5.90;;
54539;SDS011;40438;52.992;18.604;2023-07-28T09:48:19;8.55;;;6.25;;
54539;SDS011;40438;52.992;18.604;2023-07-28T09:50:45;7.47;;;5.50;;
54539;SDS011;40438;52.992;18.604;2023-07-28T09:53:12;7.28;;;6.20;;
54539;SDS011;40438;52.992;18.604;2023-07-28T09:55:39;7.65;;;5.80;;
54539;SDS011;40438;52.992;18.604;2023-07-28T09:58:05;8.40;;;6.07;;
54539;SDS011;40438;52.992;18.604;2023-07-28T10:00:35;10.43;;;5.97;;
54539;SDS011;40438;52.992;18.604;2023-07-28T10:03:02;7.63;;;5.75;;
54539;SDS011;40438;52.992;18.604;2023-07-28T10:05:28;10.73;;;6.30;;
54539;SDS011;40438;52.992;18.604;2023-07-28T10:07:55;8.00;;;5.93;;
54539;SDS011;40438;52.992;18.604;2023-07-28T10:10:23;8.15;;;6.35;;
54539;SDS011;40438;52.992;18.604;2023-07-28T10:12:49;9.25;;;7.05;;
54539;SDS011;40438;52.992;18.604;2023-07-28T10:15:16;9.60;;;6.93;;
54539;SDS011;40438;52.992;18.604;2023-07-28T10:17:43;9.23;;;6.20;;
54539;SDS011;40438;52.992;18.604;2023-07-28T10:23:02;8.75;;;6.60;;
54539;SDS011;40438;52.992;18.604;2023-07-28T10:25:33;9.55;;;6.15;;
54539;SDS011;40438;52.992;18.604;2023-07-28T10:28:00;8.38;;;6.47;;
54539;SDS011;40438;52.992;18.604;2023-07-28T10:30:26;12.27;;;6.57;;
54539;SDS011;40438;52.992;18.604;2023-07-28T10:32:52;8.15;;;5.80;;
54539;SDS011;40438;52.992;18.604;2023-07-28T10:35:23;7.20;;;5.97;;
54539;SDS011;40438;52.992;18.604;2023-07-28T10:37:51;11.45;;;6.32;;
54539;SDS011;40438;52.992;18.604;2023-07-28T10:40:25;7.60;;;6.05;;
54539;SDS011;40438;52.992;18.604;2023-07-28T10:42:54;9.93;;;5.57;;
54539;SDS011;40438;52.992;18.604;2023-07-28T10:45:21;7.97;;;5.78;;
54539;SDS011;40438;52.992;18.604;2023-07-28T10:47:48;7.97;;;6.25;;
54539;SDS011;40438;52.992;18.604;2023-07-28T10:50:14;7.38;;;5.93;;
54539;SDS011;40438;52.992;18.604;2023-07-28T10:52:40;7.40;;;5.57;;
54539;SDS011;40438;52.992;18.604;2023-07-28T10:55:11;9.85;;;5.65;;
54539;SDS011;40438;52.992;18.604;2023-07-28T10:57:37;6.93;;;5.22;;
54539;SDS011;40438;52.992;18.604;2023-07-28T11:00:05;7.13;;;4.80;;
54539;SDS011;40438;52.992;18.604;2023-07-28T11:02:32;5.35;;;4.43;;
54539;SDS011;40438;52.992;18.604;2023-07-28T11:04:58;4.85;;;3.95;;
54539;SDS011;40438;52.992;18.604;2023-07-28T11:07:23;5.78;;;4.50;;
54539;SDS011;40438;52.992;18.604;2023-07-28T11:09:50;5.70;;;4.05;;
54539;SDS011;40438;52.992;18.604;2023-07-28T11:12:16;4.60;;;4.03;;
54539;SDS011;40438;52.992;18.604;2023-07-28T11:14:42;3.95;;;3.53;;
54539;SDS011;40438;52.992;18.604;2023-07-28T11:17:10;4.20;;;3.63;;
54539;SDS011;40438;52.992;18.604;2023-07-28T11:19:35;4.85;;;3.45;;
54539;SDS011;40438;52.992;18.604;2023-07-28T11:22:01;3.50;;;2.95;;
54539;SDS011;40438;52.992;18.604;2023-07-28T11:24:27;3.30;;;2.60;;
54539;SDS011;40438;52.992;18.604;2023-07-28T11:26:53;5.50;;;2.90;;
54539;SDS011;40438;52.992;18.604;2023-07-28T11:29:19;3.92;;;2.63;;
54539;SDS011;40438;52.992;18.604;2023-07-28T11:31:45;3.85;;;2.80;;
54539;SDS011;40438;52.992;18.604;2023-07-28T11:34:14;3.67;;;3.03;;
54539;SDS011;40438;52.992;18.604;2023-07-28T11:36:41;5.28;;;2.78;;
54539;SDS011;40438;52.992;18.604;2023-07-28T11:39:07;4.72;;;2.55;;
54539;SDS011;40438;52.992;18.604;2023-07-28T11:41:33;3.03;;;2.78;;
54539;SDS011;40438;52.992;18.604;2023-07-28T11:43:59;2.75;;;2.40;;
54539;SDS011;40438;52.992;18.604;2023-07-28T11:46:33;3.10;;;2.53;;
54539;SDS011;40438;52.992;18.604;2023-07-28T11:49:06;3.63;;;2.28;;
54539;SDS011;40438;52.992;18.604;2023-07-28T11:51:38;3.72;;;2.22;;
54539;SDS011;40438;52.992;18.604;2023-07-28T11:54:04;2.42;;;2.22;;
54539;SDS011;40438;52.992;18.604;2023-07-28T11:56:31;2.30;;;2.10;;
54539;SDS011;40438;52.992;18.604;2023-07-28T11:58:56;2.63;;;2.13;;
54539;SDS011;40438;52.992;18.604;2023-07-28T12:01:23;2.50;;;1.95;;
54539;SDS011;40438;52.992;18.604;2023-07-28T12:03:49;2.33;;;2.13;;
54539;SDS011;40438;52.992;18.604;2023-07-28T12:06:15;3.60;;;2.33;;
54539;SDS011;40438;52.992;18.604;2023-07-28T12:08:42;4.88;;;2.75;;
54539;SDS011;40438;52.992;18.604;2023-07-28T12:11:11;3.20;;;2.20;;
54539;SDS011;40438;52.992;18.604;2023-07-28T12:13:46;3.60;;;2.80;;
54539;SDS011;40438;52.992;18.604;2023-07-28T12:18:57;3.28;;;2.97;;
54539;SDS011;40438;52.992;18.604;2023-07-28T12:21:23;3.97;;;3.08;;
54539;SDS011;40438;52.992;18.604;2023-07-28T12:23:50;3.17;;;2.83;;
54539;SDS011;40438;52.992;18.604;2023-07-28T12:26:16;3.80;;;2.75;;
54539;SDS011;40438;52.992;18.604;2023-07-28T12:28:42;3.63;;;3.03;;
54539;SDS011;40438;52.992;18.604;2023-07-28T12:31:07;4.80;;;3.08;;
54539;SDS011;40438;52.992;18.604;2023-07-28T12:33:33;5.85;;;2.90;;
54539;SDS011;40438;52.992;18.604;2023-07-28T12:35:59;3.78;;;2.60;;
54539;SDS011;40438;52.992;18.604;2023-07-28T12:38:25;3.33;;;3.03;;
54539;SDS011;40438;52.992;18.604;2023-07-28T12:40:52;3.92;;;2.97;;
54539;SDS011;40438;52.992;18.604;2023-07-28T12:43:17;4.75;;;2.88;;
54539;SDS011;40438;52.992;18.604;2023-07-28T12:45:43;3.65;;;3.13;;
54539;SDS011;40438;52.992;18.604;2023-07-28T12:48:12;3.13;;;2.78;;
54539;SDS011;40438;52.992;18.604;2023-07-28T12:50:38;5.93;;;3.63;;
54539;SDS011;40438;52.992;18.604;2023-07-28T12:53:03;4.60;;;3.13;;
54539;SDS011;40438;52.992;18.604;2023-07-28T12:55:29;3.42;;;2.90;;
54539;SDS011;40438;52.992;18.604;2023-07-28T12:57:56;4.28;;;3.58;;
54539;SDS011;40438;52.992;18.604;2023-07-28T13:00:22;3.97;;;3.53;;
54539;SDS011;40438;52.992;18.604;2023-07-28T13:02:48;4.13;;;3.17;;
54539;SDS011;40438;52.992;18.604;2023-07-28T13:05:14;4.35;;;3.50;;
54539;SDS011;40438;52.992;18.604;2023-07-28T13:07:39;7.65;;;3.80;;
54539;SDS011;40438;52.992;18.604;2023-07-28T13:10:06;6.88;;;3.88;;
54539;SDS011;40438;52.992;18.604;2023-07-28T13:12:33;5.97;;;3.83;;
54539;SDS011;40438;52.992;18.604;2023-07-28T13:15:00;6.40;;;4.18;;
54539;SDS011;40438;52.992;18.604;2023-07-28T13:17:26;4.57;;;3.83;;
54539;SDS011;40438;52.992;18.604;2023-07-28T13:19:52;6.43;;;3.95;;
54539;SDS011;40438;52.992;18.604;2023-07-28T13:22:18;5.70;;;3.53;;
54539;SDS011;40438;52.992;18.604;2023-07-28T13:24:44;4.45;;;3.50;;
54539;SDS011;40438;52.992;18.604;2023-07-28T13:27:10;4.70;;;3.60;;
54539;SDS011;40438;52.992;18.604;2023-07-28T13:29:36;4.65;;;3.15;;
54539;SDS011;40438;52.992;18.604;2023-07-28T13:32:03;5.25;;;3.03;;
54539;SDS011;40438;52.992;18.604;2023-07-28T13:34:39;4.57;;;3.10;;
54539;SDS011;40438;52.992;18.604;2023-07-28T13:37:05;4.63;;;2.85;;
54539;SDS011;40438;52.992;18.604;2023-07-28T13:39:31;5.60;;;3.00;;
54539;SDS011;40438;52.992;18.604;2023-07-28T13:41:57;4.07;;;3.10;;
54539;SDS011;40438;52.992;18.604;2023-07-28T13:44:22;2.95;;;2.65;;
54539;SDS011;40438;52.992;18.604;2023-07-28T13:46:48;2.83;;;2.47;;
54539;SDS011;40438;52.992;18.604;2023-07-28T13:49:15;3.33;;;2.60;;
54539;SDS011;40438;52.992;18.604;2023-07-28T13:51:41;3.03;;;2.72;;
54539;SDS011;40438;52.992;18.604;2023-07-28T13:54:07;3.25;;;2.95;;
54539;SDS011;40438;52.992;18.604;2023-07-28T13:56:33;2.80;;;2.60;;
54539;SDS011;40438;52.992;18.604;2023-07-28T13:58:58;3.10;;;2.40;;
54539;SDS011;40438;52.992;18.604;2023-07-28T14:01:24;2.40;;;1.90;;
54539;SDS011;40438;52.992;18.604;2023-07-28T14:03:50;1.75;;;1.65;;
54539;SDS011;40438;52.992;18.604;2023-07-28T14:06:17;2.97;;;2.13;;
54539;SDS011;40438;52.992;18.604;2023-07-28T14:08:43;2.67;;;2.47;;
54539;SDS011;40438;52.992;18.604;2023-07-28T14:11:09;2.72;;;2.53;;
54539;SDS011;40438;52.992;18.604;2023-07-28T14:13:34;2.85;;;2.38;;
54539;SDS011;40438;52.992;18.604;2023-07-28T14:16:00;3.67;;;2.65;;
54539;SDS011;40438;52.992;18.604;2023-07-28T14:18:26;5.95;;;2.78;;
54539;SDS011;40438;52.992;18.604;2023-07-28T14:20:52;6.40;;;3.00;;
54539;SDS011;40438;52.992;18.604;2023-07-28T14:23:22;6.22;;;2.58;;
54539;SDS011;40438;52.992;18.604;2023-07-28T14:25:49;5.97;;;3.05;;
54539;SDS011;40438;52.992;18.604;2023-07-28T14:28:15;5.22;;;2.40;;
54539;SDS011;40438;52.992;18.604;2023-07-28T14:30:40;6.63;;;2.42;;
54539;SDS011;40438;52.992;18.604;2023-07-28T14:33:06;3.67;;;2.85;;
54539;SDS011;40438;52.992;18.604;2023-07-28T14:35:32;3.13;;;2.40;;
54539;SDS011;40438;52.992;18.604;2023-07-28T14:37:58;3.78;;;2.22;;